createdAt,value
2023-05-14T00:00:30.094Z,8.35
2023-05-14T00:02:56.648Z,8.70
2023-05-14T00:05:23.326Z,8.75
2023-05-14T00:07:49.763Z,8.85
2023-05-14T00:10:17.597Z,8.15
2023-05-14T00:12:43.981Z,8.15
2023-05-14T00:15:10.515Z,8.60
2023-05-14T00:17:37.439Z,7.80
2023-05-14T00:20:07.187Z,7.97
2023-05-14T00:22:34.485Z,7.85
2023-05-14T00:25:00.963Z,7.63
2023-05-14T00:27:27.553Z,9.85
2023-05-14T00:29:54.020Z,8.02
2023-05-14T00:32:20.461Z,8.75
2023-05-14T00:34:46.864Z,7.90
2023-05-14T00:37:13.320Z,7.72
2023-05-14T00:39:39.742Z,8.68
2023-05-14T00:42:06.716Z,7.55
2023-05-14T00:44:33.176Z,8.50
2023-05-14T00:47:00.354Z,8.73
2023-05-14T00:49:28.595Z,7.57
2023-05-14T00:51:55.932Z,7.97
2023-05-14T00:54:22.793Z,7.68
2023-05-14T00:56:49.271Z,7.82
2023-05-14T00:59:15.666Z,7.45
2023-05-14T01:01:42.712Z,8.05
2023-05-14T01:04:11.668Z,7.03
2023-05-14T01:07:07.078Z,7.50
2023-05-14T01:09:44.834Z,7.40
2023-05-14T01:12:26.015Z,7.05
2023-05-14T01:15:06.534Z,7.68
2023-05-14T01:17:35.870Z,7.93
2023-05-14T01:20:02.454Z,7.38
2023-05-14T01:22:28.824Z,7.88
2023-05-14T01:24:55.806Z,7.47
2023-05-14T01:27:31.878Z,7.78
2023-05-14T01:30:23.059Z,7.63
2023-05-14T01:32:54.398Z,7.47
2023-05-14T01:35:25.261Z,7.10
2023-05-14T01:37:54.904Z,8.15
2023-05-14T01:40:22.017Z,6.75
2023-05-14T01:42:51.821Z,8.25
2023-05-14T01:45:21.131Z,7.78
2023-05-14T01:47:48.078Z,6.80
2023-05-14T01:50:14.586Z,7.60
2023-05-14T01:52:41.081Z,7.45
2023-05-14T01:55:08.020Z,7.38
2023-05-14T01:57:34.459Z,8.63
2023-05-14T02:00:00.991Z,7.78
2023-05-14T02:02:27.480Z,7.68
2023-05-14T02:04:53.973Z,8.07
2023-05-14T02:07:20.662Z,7.72
2023-05-14T02:09:47.112Z,8.00
2023-05-14T02:12:13.559Z,7.82
2023-05-14T02:14:40.012Z,8.07
2023-05-14T02:17:06.486Z,7.75
2023-05-14T02:19:32.935Z,8.02
2023-05-14T02:22:00.310Z,7.70
2023-05-14T02:24:27.165Z,7.22
2023-05-14T02:26:53.707Z,6.93
2023-05-14T02:29:20.451Z,8.93
2023-05-14T02:31:46.864Z,7.50
2023-05-14T02:34:13.286Z,7.55
2023-05-14T02:36:40.075Z,6.93
2023-05-14T02:39:06.629Z,7.40
2023-05-14T02:41:33.128Z,7.70
2023-05-14T02:43:59.650Z,7.75
2023-05-14T02:46:26.142Z,7.45
2023-05-14T02:48:52.628Z,7.50
2023-05-14T02:51:20.301Z,7.32
2023-05-14T02:53:46.858Z,7.45
2023-05-14T02:56:13.261Z,7.20
2023-05-14T02:58:39.706Z,7.20
2023-05-14T03:01:06.178Z,6.90
2023-05-14T03:03:33.783Z,7.00
2023-05-14T03:06:00.792Z,6.97
2023-05-14T03:08:27.207Z,6.90
2023-05-14T03:10:53.664Z,7.43
2023-05-14T03:13:20.718Z,7.25
2023-05-14T03:15:47.403Z,7.18
2023-05-14T03:18:14.319Z,6.95
2023-05-14T03:20:41.520Z,6.70
2023-05-14T03:23:08.026Z,7.45
2023-05-14T03:25:34.436Z,7.53
2023-05-14T03:28:00.975Z,7.72
2023-05-14T03:30:27.563Z,7.60
2023-05-14T03:32:54.023Z,7.22
2023-05-14T03:35:20.494Z,8.73
2023-05-14T03:37:46.901Z,7.53
2023-05-14T03:40:13.275Z,7.70
2023-05-14T03:42:39.780Z,8.00
2023-05-14T03:45:07.075Z,7.10
2023-05-14T03:47:33.547Z,7.43
2023-05-14T03:50:00.291Z,7.40
2023-05-14T03:52:26.723Z,7.53
2023-05-14T03:54:53.174Z,7.35
2023-05-14T03:57:21.257Z,7.60
2023-05-14T03:59:48.017Z,7.72
2023-05-14T04:02:14.491Z,6.88
2023-05-14T04:04:42.266Z,7.22
2023-05-14T04:07:08.969Z,7.20
2023-05-14T04:09:35.410Z,7.10
2023-05-14T04:12:01.873Z,6.97
2023-05-14T04:14:28.245Z,7.75
2023-05-14T04:16:54.713Z,6.82
2023-05-14T04:19:21.147Z,6.70
2023-05-14T04:21:47.564Z,6.55
2023-05-14T04:24:13.977Z,6.57
2023-05-14T04:26:40.419Z,6.80
2023-05-14T04:29:06.783Z,7.80
2023-05-14T04:31:33.206Z,6.38
2023-05-14T04:33:59.664Z,6.85
2023-05-14T04:36:26.328Z,6.78
2023-05-14T04:38:52.816Z,6.68
2023-05-14T04:41:22.203Z,6.47
2023-05-14T04:43:50.273Z,6.75
2023-05-14T04:46:16.891Z,6.32
2023-05-14T04:48:43.419Z,7.10
2023-05-14T04:51:09.925Z,6.70
2023-05-14T04:53:36.295Z,6.65
2023-05-14T04:56:02.923Z,6.32
2023-05-14T04:58:33.531Z,6.78
2023-05-14T05:01:02.157Z,6.80
2023-05-14T05:03:28.860Z,6.55
2023-05-14T05:05:55.463Z,6.55
2023-05-14T05:08:21.883Z,6.18
2023-05-14T05:10:48.322Z,5.90
2023-05-14T05:13:16.959Z,6.60
2023-05-14T05:15:43.760Z,5.95
2023-05-14T05:18:10.323Z,6.35
2023-05-14T05:20:36.687Z,6.32
2023-05-14T05:23:03.077Z,5.72
2023-05-14T05:25:29.485Z,6.25
2023-05-14T05:27:56.063Z,6.80
2023-05-14T05:30:22.754Z,6.53
2023-05-14T05:32:49.455Z,6.13
2023-05-14T05:35:15.933Z,6.10
2023-05-14T05:37:42.884Z,6.07
2023-05-14T05:40:10.242Z,6.25
2023-05-14T05:42:36.627Z,5.97
2023-05-14T05:45:03.277Z,6.22
2023-05-14T05:47:30.176Z,6.35
2023-05-14T05:49:56.930Z,6.15
2023-05-14T05:52:23.426Z,5.55
2023-05-14T05:54:49.891Z,6.47
2023-05-14T05:57:16.370Z,6.85
2023-05-14T05:59:43.045Z,6.00
2023-05-14T06:02:09.511Z,6.07
2023-05-14T06:04:35.924Z,5.63
2023-05-14T06:07:02.439Z,6.15
2023-05-14T06:09:28.797Z,6.22
2023-05-14T06:11:55.264Z,5.78
2023-05-14T06:14:21.613Z,5.95
2023-05-14T06:16:48.116Z,5.57
2023-05-14T06:19:14.675Z,5.40
2023-05-14T06:21:41.156Z,6.35
2023-05-14T06:24:07.746Z,5.68
2023-05-14T06:26:34.231Z,5.82
2023-05-14T06:29:01.014Z,6.10
2023-05-14T06:31:27.515Z,6.30
2023-05-14T06:33:53.959Z,5.20
2023-05-14T06:36:20.427Z,5.65
2023-05-14T06:38:46.782Z,5.45
2023-05-14T06:41:13.188Z,5.60
2023-05-14T06:43:39.702Z,5.93
2023-05-14T06:46:06.420Z,5.35
2023-05-14T06:48:32.868Z,5.18
2023-05-14T06:50:59.288Z,6.05
2023-05-14T06:53:25.668Z,4.97
2023-05-14T06:55:52.096Z,5.03
2023-05-14T06:58:18.514Z,5.80
2023-05-14T07:00:45.007Z,5.72
2023-05-14T07:03:11.508Z,5.45
2023-05-14T07:05:38.192Z,5.43
2023-05-14T07:08:04.838Z,5.45
2023-05-14T07:10:31.634Z,5.47
2023-05-14T07:12:58.203Z,5.45
2023-05-14T07:15:24.610Z,5.30
2023-05-14T07:17:51.149Z,5.40
2023-05-14T07:20:17.551Z,5.60
2023-05-14T07:22:43.943Z,4.63
2023-05-14T07:25:10.516Z,5.22
2023-05-14T07:27:37.027Z,4.97
2023-05-14T07:30:04.037Z,5.72
2023-05-14T07:32:30.643Z,5.55
2023-05-14T07:34:57.237Z,5.10
2023-05-14T07:37:25.879Z,5.50
2023-05-14T07:39:53.003Z,5.32
2023-05-14T07:42:31.675Z,5.47
2023-05-14T07:45:02.132Z,6.43
2023-05-14T07:47:29.021Z,5.60
2023-05-14T07:49:56.549Z,6.82
2023-05-14T07:52:23.463Z,6.45
2023-05-14T07:54:51.224Z,6.45
2023-05-14T07:57:18.466Z,6.15
2023-05-14T07:59:44.802Z,6.00
2023-05-14T08:02:12.774Z,6.07
2023-05-14T08:04:39.676Z,6.28
2023-05-14T08:07:08.031Z,7.05
2023-05-14T08:09:34.653Z,6.88
2023-05-14T08:12:01.428Z,7.50
2023-05-14T08:14:28.687Z,7.82
2023-05-14T08:16:55.216Z,6.93
2023-05-14T08:19:21.743Z,7.85
2023-05-14T08:21:48.189Z,6.95
2023-05-14T08:24:14.991Z,6.90
2023-05-14T08:26:41.845Z,7.13
2023-05-14T08:29:10.494Z,7.03
2023-05-14T08:31:37.388Z,7.10
2023-05-14T08:34:03.808Z,7.20
2023-05-14T08:36:30.282Z,6.68
2023-05-14T08:38:56.726Z,7.40
2023-05-14T08:41:23.427Z,6.93
2023-05-14T08:44:11.546Z,7.10
2023-05-14T08:46:39.137Z,6.95
2023-05-14T08:49:33.454Z,6.55
2023-05-14T08:52:01.618Z,6.22
2023-05-14T08:54:28.790Z,7.25
2023-05-14T08:56:55.516Z,6.70
2023-05-14T08:59:21.928Z,6.57
2023-05-14T09:01:51.710Z,6.78
2023-05-14T09:04:23.837Z,6.75
2023-05-14T09:06:53.586Z,6.32
2023-05-14T09:09:23.036Z,6.25
2023-05-14T09:11:53.253Z,5.78
2023-05-14T09:14:20.657Z,7.00
2023-05-14T09:16:48.875Z,6.05
2023-05-14T09:19:17.939Z,5.75
2023-05-14T09:21:49.450Z,5.80
2023-05-14T09:24:23.930Z,5.90
2023-05-14T09:29:18.548Z,5.50
2023-05-14T09:31:45.242Z,5.07
2023-05-14T09:34:12.036Z,5.78
2023-05-14T09:36:38.536Z,6.22
2023-05-14T09:39:04.986Z,6.35
2023-05-14T09:41:31.407Z,5.95
2023-05-14T09:43:57.912Z,6.10
2023-05-14T09:46:27.236Z,6.45
2023-05-14T09:48:56.215Z,6.07
2023-05-14T09:51:22.799Z,6.13
2023-05-14T09:53:52.470Z,6.32
2023-05-14T09:56:18.939Z,6.10
2023-05-14T09:58:45.390Z,5.78
2023-05-14T10:01:12.468Z,6.95
2023-05-14T10:03:39.287Z,5.88
2023-05-14T10:06:06.740Z,6.20
2023-05-14T10:08:35.181Z,6.10
2023-05-14T10:11:13.145Z,6.43
2023-05-14T10:13:46.418Z,6.15
2023-05-14T10:16:26.920Z,5.88
2023-05-14T10:19:00.704Z,5.65
2023-05-14T10:21:31.773Z,6.10
2023-05-14T10:23:58.521Z,5.80
2023-05-14T10:26:25.394Z,5.20
2023-05-14T10:28:51.898Z,5.70
2023-05-14T10:31:18.338Z,6.28
2023-05-14T10:33:50.371Z,5.97
2023-05-14T10:36:20.736Z,5.75
2023-05-14T10:38:47.204Z,6.20
2023-05-14T10:41:17.647Z,6.30
2023-05-14T10:43:44.567Z,5.40
2023-05-14T10:46:13.612Z,6.22
2023-05-14T10:48:43.003Z,5.13
2023-05-14T10:51:11.111Z,4.82
2023-05-14T10:53:40.342Z,6.10
2023-05-14T10:56:11.604Z,5.05
2023-05-14T10:58:39.257Z,5.32
2023-05-14T11:01:07.312Z,4.93
2023-05-14T11:03:43.125Z,5.10
2023-05-14T11:06:11.794Z,5.20
2023-05-14T11:11:05.989Z,4.63
2023-05-14T11:13:34.405Z,5.05
2023-05-14T11:18:42.125Z,4.70
2023-05-14T11:21:08.617Z,5.18
2023-05-14T11:23:35.042Z,5.03
2023-05-14T11:26:01.604Z,5.38
2023-05-14T11:28:28.060Z,5.05
2023-05-14T11:30:54.577Z,5.00
2023-05-14T11:33:21.271Z,5.40
2023-05-14T11:35:48.427Z,5.85
2023-05-14T11:38:19.505Z,5.20
2023-05-14T11:40:55.036Z,5.35
2023-05-14T11:43:24.963Z,5.07
2023-05-14T11:45:52.682Z,4.43
2023-05-14T11:48:20.440Z,4.60
2023-05-14T11:50:51.875Z,4.88
2023-05-14T11:53:29.699Z,5.20
2023-05-14T11:55:57.945Z,5.07
2023-05-14T11:58:25.244Z,4.90
2023-05-14T12:00:53.246Z,5.05
2023-05-14T12:03:26.029Z,5.10
2023-05-14T12:06:00.661Z,4.38
2023-05-14T12:08:31.558Z,5.60
2023-05-14T12:10:59.271Z,4.68
2023-05-14T12:13:30.740Z,4.43
2023-05-14T12:15:59.485Z,5.13
2023-05-14T12:18:27.634Z,4.72
2023-05-14T12:20:54.671Z,5.00
2023-05-14T12:23:29.291Z,4.40
2023-05-14T12:26:01.006Z,5.35
2023-05-14T12:28:28.618Z,5.25
2023-05-14T12:30:59.190Z,4.28
2023-05-14T12:33:29.152Z,4.82
2023-05-14T12:36:09.906Z,4.47
2023-05-14T12:38:46.607Z,4.95
2023-05-14T12:41:13.066Z,5.65
2023-05-14T12:43:43.495Z,4.85
2023-05-14T12:46:10.735Z,4.85
2023-05-14T12:48:37.092Z,4.60
2023-05-14T12:51:03.776Z,4.72
2023-05-14T12:53:30.233Z,5.85
2023-05-14T12:55:56.632Z,5.53
2023-05-14T12:58:23.055Z,16.60
2023-05-14T13:00:49.492Z,8.63
2023-05-14T13:03:16.089Z,6.22
2023-05-14T13:05:42.561Z,5.28
2023-05-14T13:08:09.606Z,4.97
2023-05-14T13:10:36.182Z,5.20
2023-05-14T13:13:02.600Z,5.13
2023-05-14T13:15:29.211Z,5.20
2023-05-14T13:17:55.786Z,5.35
2023-05-14T13:20:23.593Z,4.85
2023-05-14T13:22:50.042Z,4.93
2023-05-14T13:25:16.510Z,5.43
2023-05-14T13:27:43.007Z,5.65
2023-05-14T13:30:10.275Z,4.60
2023-05-14T13:32:36.695Z,4.88
2023-05-14T13:35:03.236Z,5.00
2023-05-14T13:37:29.737Z,4.65
2023-05-14T13:39:56.174Z,4.55
2023-05-14T13:42:23.557Z,4.22
2023-05-14T13:44:50.027Z,4.63
2023-05-14T13:47:16.480Z,4.70
2023-05-14T13:49:43.307Z,4.85
2023-05-14T13:52:09.733Z,5.53
2023-05-14T13:54:36.080Z,4.45
2023-05-14T13:57:02.553Z,5.03
2023-05-14T13:59:28.923Z,5.03
2023-05-14T14:01:55.421Z,4.80
2023-05-14T14:04:22.184Z,5.10
2023-05-14T14:06:48.979Z,4.93
2023-05-14T14:09:15.476Z,4.93
2023-05-14T14:11:41.920Z,4.65
2023-05-14T14:14:08.350Z,5.35
2023-05-14T14:16:34.856Z,4.45
2023-05-14T14:19:01.290Z,4.80
2023-05-14T14:21:27.704Z,4.07
2023-05-14T14:23:54.211Z,4.60
2023-05-14T14:26:21.298Z,4.75
2023-05-14T14:28:47.905Z,4.93
2023-05-14T14:31:14.413Z,4.60
2023-05-14T14:33:41.044Z,4.40
2023-05-14T14:36:07.630Z,4.53
2023-05-14T14:38:34.048Z,4.60
2023-05-14T14:41:03.094Z,4.55
2023-05-14T14:43:29.605Z,4.13
2023-05-14T14:45:56.062Z,3.90
2023-05-14T14:48:31.700Z,3.92
2023-05-14T14:50:58.585Z,4.13
2023-05-14T14:53:25.382Z,4.20
2023-05-14T14:55:52.022Z,4.05
2023-05-14T14:58:19.419Z,3.78
2023-05-14T15:00:46.244Z,4.18
2023-05-14T15:03:14.833Z,3.60
2023-05-14T15:05:41.514Z,4.15
2023-05-14T15:08:07.961Z,4.65
2023-05-14T15:10:37.856Z,4.28
2023-05-14T15:13:05.850Z,4.50
2023-05-14T15:15:33.524Z,4.40
2023-05-14T15:18:00.003Z,4.45
2023-05-14T15:20:26.796Z,4.35
2023-05-14T15:22:53.783Z,4.10
2023-05-14T15:25:20.899Z,4.60
2023-05-14T15:27:47.569Z,5.15
2023-05-14T15:30:14.903Z,4.60
2023-05-14T15:32:41.978Z,4.55
2023-05-14T15:35:08.906Z,5.47
2023-05-14T15:37:41.259Z,4.15
2023-05-14T15:40:08.997Z,4.18
2023-05-14T15:42:37.039Z,5.25
2023-05-14T15:45:03.754Z,4.20
2023-05-14T15:47:30.332Z,4.53
2023-05-14T15:49:56.853Z,5.40
2023-05-14T15:52:23.348Z,4.07
2023-05-14T15:54:50.095Z,4.18
2023-05-14T15:57:17.907Z,4.47
2023-05-14T15:59:46.981Z,4.60
2023-05-14T16:02:14.566Z,4.63
2023-05-14T16:04:41.006Z,5.20
2023-05-14T16:07:12.195Z,4.40
2023-05-14T16:09:39.448Z,4.65
2023-05-14T16:12:06.901Z,4.97
2023-05-14T16:14:34.782Z,4.75
2023-05-14T16:17:02.059Z,4.57
2023-05-14T16:19:28.619Z,4.60
2023-05-14T16:21:55.080Z,4.47
2023-05-14T16:24:21.530Z,4.88
2023-05-14T16:26:48.011Z,4.78
2023-05-14T16:29:14.363Z,5.28
2023-05-14T16:31:40.809Z,4.53
2023-05-14T16:34:07.248Z,4.63
2023-05-14T16:36:34.767Z,4.45
2023-05-14T16:41:30.803Z,4.35
2023-05-14T16:43:57.257Z,4.55
2023-05-14T16:46:23.816Z,4.53
2023-05-14T16:48:50.833Z,4.28
2023-05-14T16:51:17.429Z,4.82
2023-05-14T16:53:44.029Z,4.40
2023-05-14T16:56:13.279Z,4.65
2023-05-14T16:58:39.650Z,5.10
2023-05-14T17:01:09.351Z,4.53
2023-05-14T17:03:36.089Z,4.70
2023-05-14T17:06:02.663Z,4.53
2023-05-14T17:08:33.631Z,4.65
2023-05-14T17:11:00.222Z,4.50
2023-05-14T17:13:26.655Z,5.32
2023-05-14T17:15:53.189Z,4.72
2023-05-14T17:18:19.706Z,4.75
2023-05-14T17:20:46.322Z,5.40
2023-05-14T17:23:13.045Z,5.65
2023-05-14T17:25:39.778Z,5.72
2023-05-14T17:28:06.559Z,5.30
2023-05-14T17:30:33.075Z,5.43
2023-05-14T17:32:59.844Z,5.13
2023-05-14T17:35:26.321Z,5.90
2023-05-14T17:37:53.361Z,5.10
2023-05-14T17:40:19.905Z,5.57
2023-05-14T17:42:46.537Z,5.85
2023-05-14T17:45:14.341Z,5.35
2023-05-14T17:47:40.996Z,6.28
2023-05-14T17:50:07.999Z,5.40
2023-05-14T17:52:34.406Z,5.22
2023-05-14T17:55:01.004Z,5.15
2023-05-14T17:57:27.574Z,4.78
2023-05-14T17:59:54.090Z,4.97
2023-05-14T18:02:20.603Z,5.75
2023-05-14T18:04:47.044Z,5.45
2023-05-14T18:07:13.605Z,5.00
2023-05-14T18:09:39.985Z,5.13
2023-05-14T18:12:06.941Z,5.45
2023-05-14T18:14:33.312Z,4.90
2023-05-14T18:16:59.948Z,6.00
2023-05-14T18:19:26.568Z,4.80
2023-05-14T18:21:55.323Z,4.38
2023-05-14T18:24:22.149Z,4.78
2023-05-14T18:26:49.479Z,4.43
2023-05-14T18:29:15.937Z,5.32
2023-05-14T18:31:42.300Z,4.53
2023-05-14T18:34:08.754Z,4.78
2023-05-14T18:36:35.450Z,5.03
2023-05-14T18:39:01.881Z,4.40
2023-05-14T18:41:28.317Z,4.78
2023-05-14T18:43:54.898Z,5.13
2023-05-14T18:46:22.652Z,4.47
2023-05-14T18:48:50.073Z,4.55
2023-05-14T18:51:16.671Z,4.63
2023-05-14T18:53:43.064Z,4.85
2023-05-14T18:56:09.591Z,4.43
2023-05-14T18:58:36.073Z,3.92
2023-05-14T19:01:02.516Z,4.50
2023-05-14T19:03:29.185Z,3.92
2023-05-14T19:05:55.772Z,3.92
2023-05-14T19:08:22.216Z,4.25
2023-05-14T19:10:48.775Z,4.10
2023-05-14T19:13:18.069Z,4.63
2023-05-14T19:15:44.628Z,4.72
2023-05-14T19:18:12.925Z,4.70
2023-05-14T19:20:39.550Z,4.55
2023-05-14T19:23:06.131Z,4.47
2023-05-14T19:25:33.614Z,5.00
2023-05-14T19:28:02.191Z,4.80
2023-05-14T19:30:28.556Z,4.75
2023-05-14T19:32:55.210Z,4.30
2023-05-14T19:35:21.787Z,4.40
2023-05-14T19:37:48.291Z,4.78
2023-05-14T19:40:14.759Z,4.25
2023-05-14T19:42:41.433Z,4.10
2023-05-14T19:45:08.374Z,4.30
2023-05-14T19:47:34.874Z,4.85
2023-05-14T19:50:01.417Z,4.43
2023-05-14T19:52:27.853Z,4.25
2023-05-14T19:54:54.435Z,4.32
2023-05-14T19:57:20.842Z,4.50
2023-05-14T19:59:47.236Z,4.85
2023-05-14T20:02:18.192Z,4.95
2023-05-14T20:04:45.917Z,4.25
2023-05-14T20:07:15.497Z,4.00
2023-05-14T20:09:42.002Z,4.00
2023-05-14T20:12:09.041Z,4.20
2023-05-14T20:14:35.830Z,4.35
2023-05-14T20:17:03.203Z,4.72
2023-05-14T20:19:29.625Z,4.18
2023-05-14T20:21:56.399Z,4.07
2023-05-14T20:24:22.860Z,4.45
2023-05-14T20:26:49.434Z,4.95
2023-05-14T20:29:15.934Z,4.13
2023-05-14T20:31:42.314Z,4.55
2023-05-14T20:34:08.782Z,4.88
2023-05-14T20:36:35.854Z,4.15
2023-05-14T20:39:02.272Z,4.82
2023-05-14T20:41:28.696Z,5.05
2023-05-14T20:43:55.036Z,4.47
2023-05-14T20:46:21.604Z,4.93
2023-05-14T20:48:48.648Z,4.60
2023-05-14T20:51:15.011Z,4.30
2023-05-14T20:53:41.668Z,4.93
2023-05-14T20:56:08.224Z,4.40
2023-05-14T20:58:35.581Z,4.90
2023-05-14T21:01:02.137Z,4.10
2023-05-14T21:03:28.705Z,4.43
2023-05-14T21:05:56.746Z,4.13
2023-05-14T21:08:23.216Z,4.10
2023-05-14T21:10:49.629Z,4.47
2023-05-14T21:13:15.976Z,3.95
2023-05-14T21:15:42.487Z,4.30
2023-05-14T21:18:08.997Z,4.38
2023-05-14T21:20:35.444Z,4.32
2023-05-14T21:23:01.794Z,5.05
2023-05-14T21:25:28.451Z,4.30
2023-05-14T21:27:54.920Z,4.78
2023-05-14T21:30:21.631Z,4.63
2023-05-14T21:32:48.024Z,4.03
2023-05-14T21:35:14.510Z,4.82
2023-05-14T21:37:41.052Z,4.00
2023-05-14T21:40:14.936Z,4.43
2023-05-14T21:42:41.351Z,4.35
2023-05-14T21:45:08.236Z,4.50
2023-05-14T21:47:34.884Z,4.15
2023-05-14T21:50:01.347Z,4.43
2023-05-14T21:52:27.746Z,4.65
2023-05-14T21:54:54.156Z,4.80
2023-05-14T21:57:21.686Z,4.07
2023-05-14T21:59:48.047Z,4.75
2023-05-14T22:02:14.634Z,4.78
2023-05-14T22:04:41.265Z,4.60
2023-05-14T22:07:07.741Z,3.90
2023-05-14T22:09:34.100Z,4.93
2023-05-14T22:12:00.601Z,4.25
2023-05-14T22:14:27.248Z,4.72
2023-05-14T22:16:53.973Z,5.00
2023-05-14T22:19:20.553Z,4.38
2023-05-14T22:21:46.915Z,4.95
2023-05-14T22:24:13.305Z,4.85
2023-05-14T22:26:39.811Z,4.85
2023-05-14T22:29:06.179Z,4.85
2023-05-14T22:31:32.598Z,4.13
2023-05-14T22:33:59.061Z,4.72
2023-05-14T22:36:25.534Z,4.68
2023-05-14T22:38:52.005Z,4.47
2023-05-14T22:41:18.423Z,4.78
2023-05-14T22:43:44.908Z,5.13
2023-05-14T22:46:11.414Z,5.55
2023-05-14T22:48:37.763Z,4.72
2023-05-14T22:51:04.567Z,4.97
2023-05-14T22:53:30.994Z,5.25
2023-05-14T22:55:57.478Z,5.47
2023-05-14T22:58:23.910Z,5.78
2023-05-14T23:00:50.501Z,5.88
2023-05-14T23:03:16.921Z,5.45
2023-05-14T23:05:46.286Z,5.68
2023-05-14T23:08:12.673Z,5.15
2023-05-14T23:10:39.172Z,5.70
2023-05-14T23:13:05.567Z,6.05
2023-05-14T23:15:32.851Z,5.60
2023-05-14T23:17:59.717Z,5.72
2023-05-14T23:20:26.174Z,5.63
2023-05-14T23:22:53.996Z,5.90
2023-05-14T23:25:20.516Z,5.68
2023-05-14T23:27:47.890Z,5.35
2023-05-14T23:30:14.281Z,6.22
2023-05-14T23:32:40.670Z,6.40
2023-05-14T23:35:07.362Z,6.35
2023-05-14T23:37:33.903Z,5.68
2023-05-14T23:40:01.567Z,5.68
2023-05-14T23:42:27.968Z,6.38
2023-05-14T23:44:54.318Z,5.43
2023-05-14T23:47:20.801Z,5.82
2023-05-14T23:49:47.186Z,5.68
2023-05-14T23:52:13.556Z,5.13
2023-05-14T23:54:39.986Z,7.15
2023-05-14T23:57:06.409Z,5.82
2023-05-14T23:59:32.816Z,6.55
